createdAt,value
2018-10-01T00:00:20.100Z,57.49
2018-10-01T00:04:23.516Z,58.06
2018-10-01T00:08:26.920Z,57.45
2018-10-01T00:12:30.287Z,57.51
2018-10-01T00:16:33.676Z,57.37
2018-10-01T00:20:42.334Z,57.55
2018-10-01T09:30:41.020Z,57.62
2018-10-01T09:34:44.710Z,58.18
2018-10-01T09:38:48.484Z,57.58
2018-10-01T09:42:52.200Z,57.18
2018-10-01T09:46:55.916Z,57.35
2018-10-01T09:51:00.991Z,57.20
2018-10-01T09:55:04.819Z,57.70
2018-10-01T09:59:08.620Z,57.72
2018-10-01T10:03:12.804Z,57.03
2018-10-01T10:07:16.857Z,57.38
2018-10-01T10:11:22.001Z,56.65
2018-10-01T10:15:25.691Z,56.29
2018-10-01T10:19:29.367Z,56.16
2018-10-01T10:23:33.964Z,55.66
2018-10-01T10:27:38.636Z,55.60
2018-10-01T10:31:42.851Z,54.79
2018-10-01T10:35:46.438Z,55.32
2018-10-01T10:39:50.108Z,54.26
2018-10-01T10:43:55.103Z,54.37
2018-10-01T10:47:58.839Z,54.46
2018-10-01T10:52:04.591Z,53.84
2018-10-01T10:56:21.600Z,53.75
2018-10-01T11:00:45.442Z,53.99
2018-10-01T11:05:12.124Z,53.63
2018-10-01T11:13:59.161Z,52.79
2018-10-01T11:22:52.175Z,51.75
2018-10-01T11:27:03.818Z,51.04
2018-10-01T11:31:07.480Z,50.73
2018-10-01T11:35:13.705Z,51.48
2018-10-01T11:39:33.876Z,51.23
2018-10-01T11:48:25.674Z,51.33
2018-10-01T11:57:29.770Z,51.23
2018-10-01T12:43:25.875Z,51.71
2018-10-01T13:01:16.804Z,51.15
2018-10-01T13:09:58.364Z,51.50
2018-10-01T13:14:02.722Z,51.83
2018-10-01T13:50:12.699Z,53.04
2018-10-01T13:54:38.549Z,52.86
2018-10-01T13:58:42.027Z,53.32
2018-10-01T14:02:45.967Z,53.68
2018-10-01T14:06:50.447Z,53.89
2018-10-01T14:10:54.027Z,53.87
2018-10-01T14:14:57.732Z,54.34
2018-10-01T14:19:01.822Z,54.73
2018-10-01T14:23:06.114Z,55.03
2018-10-01T14:31:49.165Z,55.41
2018-10-01T14:40:08.549Z,56.47
2018-10-01T14:44:14.636Z,56.56
2018-10-01T14:48:18.372Z,56.73
2018-10-01T14:52:22.583Z,56.89
2018-10-01T15:01:05.000Z,57.51
2018-10-01T15:05:08.631Z,57.85
2018-10-01T15:09:14.748Z,58.26
2018-10-01T15:17:36.295Z,59.11
2018-10-01T15:21:41.887Z,60.01
2018-10-01T15:25:47.929Z,59.97
2018-10-01T15:29:52.692Z,60.27
2018-10-01T15:33:57.933Z,60.54
2018-10-01T15:38:03.378Z,62.16
2018-10-01T15:42:08.513Z,61.66
2018-10-01T15:46:14.637Z,61.47
2018-10-01T15:50:22.250Z,62.49
2018-10-01T15:54:26.415Z,62.46
2018-10-01T15:58:30.266Z,62.47
2018-10-01T16:02:35.406Z,62.28
2018-10-01T16:06:40.031Z,62.72
2018-10-01T16:10:45.764Z,62.68
2018-10-01T16:14:57.829Z,63.75
2018-10-01T16:19:03.511Z,63.59
2018-10-01T16:23:08.062Z,63.08
2018-10-01T16:27:13.067Z,63.70
2018-10-01T16:31:17.720Z,63.05
2018-10-01T16:35:25.139Z,63.81
2018-10-01T16:39:30.314Z,64.33
2018-10-01T16:43:34.915Z,64.16
2018-10-01T16:47:39.893Z,64.97
2018-10-01T16:51:46.197Z,64.61
2018-10-01T16:55:50.675Z,63.72
2018-10-01T16:59:55.878Z,64.17
2018-10-01T17:04:04.819Z,64.36
2018-10-01T17:08:13.543Z,64.24
2018-10-01T17:12:19.018Z,65.17
2018-10-01T18:25:47.545Z,64.00
2018-10-01T18:29:57.477Z,63.53
2018-10-01T18:34:02.699Z,63.72
2018-10-01T18:38:12.786Z,63.52
2018-10-01T18:42:17.054Z,63.71
2018-10-01T18:46:22.224Z,63.63
2018-10-01T18:50:26.228Z,63.55
2018-10-01T18:54:32.056Z,63.54
2018-10-01T18:58:36.562Z,63.34
2018-10-01T19:02:45.993Z,63.70
2018-10-01T19:06:50.629Z,64.19
2018-10-01T19:10:55.740Z,63.94
2018-10-01T19:14:59.992Z,64.05
2018-10-01T19:19:04.583Z,63.84
2018-10-01T19:23:08.681Z,63.39
2018-10-01T19:27:13.141Z,63.52
2018-10-01T19:31:20.953Z,63.61
